sensor_id;sensor_type;location;lat;lon;timestamp;P1;durP1;ratioP1;P2;durP2;ratioP2
68229;SDS011;55048;52.220;5.160;2023-04-16T00:01:31;4.78;;;0.80;;
68229;SDS011;55048;52.220;5.160;2023-04-16T00:03:57;4.95;;;0.90;;
68229;SDS011;55048;52.220;5.160;2023-04-16T00:06:22;8.60;;;0.93;;
68229;SDS011;55048;52.220;5.160;2023-04-16T00:08:48;2.95;;;0.65;;
68229;SDS011;55048;52.220;5.160;2023-04-16T00:11:14;3.15;;;0.60;;
68229;SDS011;55048;52.220;5.160;2023-04-16T00:13:39;6.82;;;0.82;;
68229;SDS011;55048;52.220;5.160;2023-04-16T00:16:05;4.97;;;0.55;;
68229;SDS011;55048;52.220;5.160;2023-04-16T00:18:31;7.53;;;0.77;;
68229;SDS011;55048;52.220;5.160;2023-04-16T00:20:56;5.63;;;0.70;;
68229;SDS011;55048;52.220;5.160;2023-04-16T00:23:21;5.72;;;0.80;;
68229;SDS011;55048;52.220;5.160;2023-04-16T00:25:49;7.95;;;1.00;;
68229;SDS011;55048;52.220;5.160;2023-04-16T00:28:14;4.00;;;0.80;;
68229;SDS011;55048;52.220;5.160;2023-04-16T00:30:40;5.43;;;0.70;;
68229;SDS011;55048;52.220;5.160;2023-04-16T00:33:05;4.88;;;1.08;;
68229;SDS011;55048;52.220;5.160;2023-04-16T00:35:31;6.95;;;0.90;;
68229;SDS011;55048;52.220;5.160;2023-04-16T00:37:56;4.47;;;0.82;;
68229;SDS011;55048;52.220;5.160;2023-04-16T00:40:22;5.18;;;0.90;;
68229;SDS011;55048;52.220;5.160;2023-04-16T00:42:47;4.85;;;0.70;;
68229;SDS011;55048;52.220;5.160;2023-04-16T00:45:13;7.80;;;0.90;;
68229;SDS011;55048;52.220;5.160;2023-04-16T00:47:38;4.35;;;1.02;;
68229;SDS011;55048;52.220;5.160;2023-04-16T00:50:04;5.95;;;0.90;;
68229;SDS011;55048;52.220;5.160;2023-04-16T00:52:30;5.25;;;1.10;;
68229;SDS011;55048;52.220;5.160;2023-04-16T00:54:57;3.80;;;0.93;;
68229;SDS011;55048;52.220;5.160;2023-04-16T00:57:23;9.82;;;1.48;;
68229;SDS011;55048;52.220;5.160;2023-04-16T00:59:48;3.65;;;1.10;;
68229;SDS011;55048;52.220;5.160;2023-04-16T01:02:14;4.65;;;1.05;;
68229;SDS011;55048;52.220;5.160;2023-04-16T01:04:41;7.20;;;1.40;;
68229;SDS011;55048;52.220;5.160;2023-04-16T01:07:06;6.05;;;1.20;;
68229;SDS011;55048;52.220;5.160;2023-04-16T01:09:32;4.43;;;1.52;;
68229;SDS011;55048;52.220;5.160;2023-04-16T01:11:57;4.22;;;0.80;;
68229;SDS011;55048;52.220;5.160;2023-04-16T01:14:23;8.38;;;1.20;;
68229;SDS011;55048;52.220;5.160;2023-04-16T01:16:48;7.22;;;1.35;;
68229;SDS011;55048;52.220;5.160;2023-04-16T01:19:13;5.18;;;1.27;;
68229;SDS011;55048;52.220;5.160;2023-04-16T01:21:39;3.88;;;1.10;;
68229;SDS011;55048;52.220;5.160;2023-04-16T01:24:05;6.05;;;1.23;;
68229;SDS011;55048;52.220;5.160;2023-04-16T01:26:31;4.93;;;1.08;;
68229;SDS011;55048;52.220;5.160;2023-04-16T01:28:57;7.45;;;1.52;;
68229;SDS011;55048;52.220;5.160;2023-04-16T01:31:23;6.22;;;1.50;;
68229;SDS011;55048;52.220;5.160;2023-04-16T01:34:04;3.88;;;1.20;;
68229;SDS011;55048;52.220;5.160;2023-04-16T01:36:30;6.85;;;1.65;;
68229;SDS011;55048;52.220;5.160;2023-04-16T01:38:56;8.27;;;1.60;;
68229;SDS011;55048;52.220;5.160;2023-04-16T01:41:22;6.55;;;1.27;;
68229;SDS011;55048;52.220;5.160;2023-04-16T01:43:47;6.45;;;1.50;;
68229;SDS011;55048;52.220;5.160;2023-04-16T01:48:48;6.38;;;1.50;;
68229;SDS011;55048;52.220;5.160;2023-04-16T01:51:13;3.80;;;1.10;;
68229;SDS011;55048;52.220;5.160;2023-04-16T01:53:39;5.38;;;1.63;;
68229;SDS011;55048;52.220;5.160;2023-04-16T01:56:04;5.72;;;1.30;;
68229;SDS011;55048;52.220;5.160;2023-04-16T01:58:31;3.35;;;1.08;;
68229;SDS011;55048;52.220;5.160;2023-04-16T02:00:57;4.65;;;1.10;;
68229;SDS011;55048;52.220;5.160;2023-04-16T02:03:23;6.45;;;1.33;;
68229;SDS011;55048;52.220;5.160;2023-04-16T02:05:49;9.98;;;1.65;;
68229;SDS011;55048;52.220;5.160;2023-04-16T02:08:15;10.20;;;1.30;;
68229;SDS011;55048;52.220;5.160;2023-04-16T02:10:41;5.30;;;1.10;;
68229;SDS011;55048;52.220;5.160;2023-04-16T02:13:10;6.90;;;1.38;;
68229;SDS011;55048;52.220;5.160;2023-04-16T02:15:35;4.80;;;1.25;;
68229;SDS011;55048;52.220;5.160;2023-04-16T02:18:01;6.70;;;1.35;;
68229;SDS011;55048;52.220;5.160;2023-04-16T02:20:26;3.63;;;0.88;;
68229;SDS011;55048;52.220;5.160;2023-04-16T02:22:57;7.60;;;1.33;;
68229;SDS011;55048;52.220;5.160;2023-04-16T02:25:23;4.13;;;1.00;;
68229;SDS011;55048;52.220;5.160;2023-04-16T02:27:50;6.50;;;1.10;;
68229;SDS011;55048;52.220;5.160;2023-04-16T02:30:26;6.53;;;1.20;;
68229;SDS011;55048;52.220;5.160;2023-04-16T02:32:52;5.60;;;1.30;;
68229;SDS011;55048;52.220;5.160;2023-04-16T02:35:18;8.25;;;1.20;;
68229;SDS011;55048;52.220;5.160;2023-04-16T02:37:43;10.27;;;1.55;;
68229;SDS011;55048;52.220;5.160;2023-04-16T02:40:09;6.38;;;1.60;;
68229;SDS011;55048;52.220;5.160;2023-04-16T02:42:35;5.85;;;1.33;;
68229;SDS011;55048;52.220;5.160;2023-04-16T02:45:00;9.60;;;1.70;;
68229;SDS011;55048;52.220;5.160;2023-04-16T02:47:27;7.18;;;1.52;;
68229;SDS011;55048;52.220;5.160;2023-04-16T02:49:52;6.35;;;1.60;;
68229;SDS011;55048;52.220;5.160;2023-04-16T02:52:17;5.20;;;1.33;;
68229;SDS011;55048;52.220;5.160;2023-04-16T02:54:43;6.38;;;1.58;;
68229;SDS011;55048;52.220;5.160;2023-04-16T02:57:08;11.70;;;1.63;;
68229;SDS011;55048;52.220;5.160;2023-04-16T02:59:34;6.70;;;1.30;;
68229;SDS011;55048;52.220;5.160;2023-04-16T03:01:59;9.35;;;1.95;;
68229;SDS011;55048;52.220;5.160;2023-04-16T03:04:25;7.45;;;2.08;;
68229;SDS011;55048;52.220;5.160;2023-04-16T03:06:50;10.60;;;2.10;;
68229;SDS011;55048;52.220;5.160;2023-04-16T03:09:16;8.02;;;1.92;;
68229;SDS011;55048;52.220;5.160;2023-04-16T03:11:41;8.85;;;2.72;;
68229;SDS011;55048;52.220;5.160;2023-04-16T03:14:06;9.95;;;2.30;;
68229;SDS011;55048;52.220;5.160;2023-04-16T03:16:32;13.07;;;2.40;;
68229;SDS011;55048;52.220;5.160;2023-04-16T03:18:57;5.18;;;1.70;;
68229;SDS011;55048;52.220;5.160;2023-04-16T03:21:23;7.80;;;1.80;;
68229;SDS011;55048;52.220;5.160;2023-04-16T03:23:48;8.13;;;2.30;;
68229;SDS011;55048;52.220;5.160;2023-04-16T03:26:13;10.07;;;2.00;;
68229;SDS011;55048;52.220;5.160;2023-04-16T03:28:39;9.25;;;2.42;;
68229;SDS011;55048;52.220;5.160;2023-04-16T03:31:06;10.30;;;2.58;;
68229;SDS011;55048;52.220;5.160;2023-04-16T03:33:32;12.13;;;3.60;;
68229;SDS011;55048;52.220;5.160;2023-04-16T03:35:57;15.60;;;3.08;;
68229;SDS011;55048;52.220;5.160;2023-04-16T03:38:25;13.38;;;2.55;;
68229;SDS011;55048;52.220;5.160;2023-04-16T03:40:52;16.17;;;3.10;;
68229;SDS011;55048;52.220;5.160;2023-04-16T03:43:17;15.25;;;3.42;;
68229;SDS011;55048;52.220;5.160;2023-04-16T03:45:43;17.55;;;3.42;;
68229;SDS011;55048;52.220;5.160;2023-04-16T03:48:10;10.07;;;2.53;;
68229;SDS011;55048;52.220;5.160;2023-04-16T03:50:36;15.07;;;3.58;;
68229;SDS011;55048;52.220;5.160;2023-04-16T03:53:02;14.77;;;3.95;;
68229;SDS011;55048;52.220;5.160;2023-04-16T03:55:28;13.35;;;3.10;;
68229;SDS011;55048;52.220;5.160;2023-04-16T03:57:55;9.43;;;2.47;;
68229;SDS011;55048;52.220;5.160;2023-04-16T04:00:21;15.65;;;3.60;;
68229;SDS011;55048;52.220;5.160;2023-04-16T04:02:56;12.50;;;3.72;;
68229;SDS011;55048;52.220;5.160;2023-04-16T04:05:22;19.15;;;4.30;;
68229;SDS011;55048;52.220;5.160;2023-04-16T04:07:48;17.17;;;4.28;;
68229;SDS011;55048;52.220;5.160;2023-04-16T04:10:14;13.45;;;4.15;;
68229;SDS011;55048;52.220;5.160;2023-04-16T04:12:40;12.90;;;3.83;;
68229;SDS011;55048;52.220;5.160;2023-04-16T04:15:06;14.27;;;4.55;;
68229;SDS011;55048;52.220;5.160;2023-04-16T04:17:32;15.60;;;3.50;;
68229;SDS011;55048;52.220;5.160;2023-04-16T04:19:58;11.48;;;3.33;;
68229;SDS011;55048;52.220;5.160;2023-04-16T04:22:23;15.93;;;5.53;;
68229;SDS011;55048;52.220;5.160;2023-04-16T04:24:51;18.25;;;4.90;;
68229;SDS011;55048;52.220;5.160;2023-04-16T04:27:17;19.17;;;5.38;;
68229;SDS011;55048;52.220;5.160;2023-04-16T04:29:42;19.48;;;5.10;;
68229;SDS011;55048;52.220;5.160;2023-04-16T04:32:07;19.77;;;5.75;;
68229;SDS011;55048;52.220;5.160;2023-04-16T04:34:33;24.40;;;6.22;;
68229;SDS011;55048;52.220;5.160;2023-04-16T04:37:00;26.10;;;7.10;;
68229;SDS011;55048;52.220;5.160;2023-04-16T04:39:26;25.20;;;7.03;;
68229;SDS011;55048;52.220;5.160;2023-04-16T04:41:52;26.02;;;8.00;;
68229;SDS011;55048;52.220;5.160;2023-04-16T04:44:18;30.67;;;7.60;;
68229;SDS011;55048;52.220;5.160;2023-04-16T04:46:43;24.13;;;6.50;;
68229;SDS011;55048;52.220;5.160;2023-04-16T04:49:10;30.75;;;9.35;;
68229;SDS011;55048;52.220;5.160;2023-04-16T04:51:35;27.98;;;8.55;;
68229;SDS011;55048;52.220;5.160;2023-04-16T04:54:01;31.05;;;9.45;;
68229;SDS011;55048;52.220;5.160;2023-04-16T04:56:26;32.72;;;10.05;;
68229;SDS011;55048;52.220;5.160;2023-04-16T04:58:53;33.58;;;8.90;;
68229;SDS011;55048;52.220;5.160;2023-04-16T05:01:18;34.50;;;10.13;;
68229;SDS011;55048;52.220;5.160;2023-04-16T05:03:44;31.90;;;8.90;;
68229;SDS011;55048;52.220;5.160;2023-04-16T05:06:09;28.48;;;8.30;;
68229;SDS011;55048;52.220;5.160;2023-04-16T05:08:35;36.42;;;9.75;;
68229;SDS011;55048;52.220;5.160;2023-04-16T05:11:00;33.08;;;8.88;;
68229;SDS011;55048;52.220;5.160;2023-04-16T05:13:26;41.72;;;11.25;;
68229;SDS011;55048;52.220;5.160;2023-04-16T05:15:51;31.02;;;9.20;;
68229;SDS011;55048;52.220;5.160;2023-04-16T05:18:17;38.83;;;9.52;;
68229;SDS011;55048;52.220;5.160;2023-04-16T05:20:42;36.78;;;9.73;;
68229;SDS011;55048;52.220;5.160;2023-04-16T05:23:07;27.95;;;8.57;;
68229;SDS011;55048;52.220;5.160;2023-04-16T05:25:33;33.75;;;9.38;;
68229;SDS011;55048;52.220;5.160;2023-04-16T05:27:58;40.72;;;9.65;;
68229;SDS011;55048;52.220;5.160;2023-04-16T05:30:23;23.65;;;9.20;;
68229;SDS011;55048;52.220;5.160;2023-04-16T05:32:49;30.33;;;8.90;;
68229;SDS011;55048;52.220;5.160;2023-04-16T05:35:15;33.83;;;9.45;;
68229;SDS011;55048;52.220;5.160;2023-04-16T05:37:41;27.35;;;8.32;;
68229;SDS011;55048;52.220;5.160;2023-04-16T05:40:06;23.90;;;8.98;;
68229;SDS011;55048;52.220;5.160;2023-04-16T05:42:32;31.65;;;8.57;;
68229;SDS011;55048;52.220;5.160;2023-04-16T05:44:57;28.73;;;8.77;;
68229;SDS011;55048;52.220;5.160;2023-04-16T05:47:23;24.88;;;8.18;;
68229;SDS011;55048;52.220;5.160;2023-04-16T05:49:48;24.45;;;8.48;;
68229;SDS011;55048;52.220;5.160;2023-04-16T05:52:14;24.25;;;6.30;;
68229;SDS011;55048;52.220;5.160;2023-04-16T05:54:40;29.20;;;7.10;;
68229;SDS011;55048;52.220;5.160;2023-04-16T05:57:05;18.42;;;6.63;;
68229;SDS011;55048;52.220;5.160;2023-04-16T05:59:30;21.83;;;7.50;;
68229;SDS011;55048;52.220;5.160;2023-04-16T06:01:56;25.77;;;7.72;;
68229;SDS011;55048;52.220;5.160;2023-04-16T06:04:22;27.73;;;8.05;;
68229;SDS011;55048;52.220;5.160;2023-04-16T06:06:47;18.00;;;6.97;;
68229;SDS011;55048;52.220;5.160;2023-04-16T06:09:12;22.77;;;6.45;;
68229;SDS011;55048;52.220;5.160;2023-04-16T06:11:38;19.58;;;7.60;;
68229;SDS011;55048;52.220;5.160;2023-04-16T06:14:03;17.27;;;6.78;;
68229;SDS011;55048;52.220;5.160;2023-04-16T06:16:29;24.55;;;7.20;;
68229;SDS011;55048;52.220;5.160;2023-04-16T06:18:54;19.63;;;6.35;;
68229;SDS011;55048;52.220;5.160;2023-04-16T06:21:20;16.95;;;6.50;;
68229;SDS011;55048;52.220;5.160;2023-04-16T06:23:45;19.17;;;6.80;;
68229;SDS011;55048;52.220;5.160;2023-04-16T06:26:11;23.75;;;6.47;;
68229;SDS011;55048;52.220;5.160;2023-04-16T06:28:36;16.92;;;5.38;;
68229;SDS011;55048;52.220;5.160;2023-04-16T06:31:01;18.52;;;5.28;;
68229;SDS011;55048;52.220;5.160;2023-04-16T06:33:27;14.63;;;6.03;;
68229;SDS011;55048;52.220;5.160;2023-04-16T06:35:52;16.70;;;6.38;;
68229;SDS011;55048;52.220;5.160;2023-04-16T06:38:17;15.82;;;5.45;;
68229;SDS011;55048;52.220;5.160;2023-04-16T06:40:43;16.33;;;6.20;;
68229;SDS011;55048;52.220;5.160;2023-04-16T06:43:08;12.27;;;5.32;;
68229;SDS011;55048;52.220;5.160;2023-04-16T06:45:34;14.85;;;6.28;;
68229;SDS011;55048;52.220;5.160;2023-04-16T06:47:59;15.35;;;4.72;;
68229;SDS011;55048;52.220;5.160;2023-04-16T06:50:25;16.15;;;6.72;;
68229;SDS011;55048;52.220;5.160;2023-04-16T06:52:53;18.40;;;6.72;;
68229;SDS011;55048;52.220;5.160;2023-04-16T06:55:18;19.67;;;6.95;;
68229;SDS011;55048;52.220;5.160;2023-04-16T06:57:44;23.58;;;7.60;;
68229;SDS011;55048;52.220;5.160;2023-04-16T07:00:10;15.43;;;6.10;;
68229;SDS011;55048;52.220;5.160;2023-04-16T07:02:36;17.48;;;6.78;;
68229;SDS011;55048;52.220;5.160;2023-04-16T07:05:01;16.20;;;5.80;;
68229;SDS011;55048;52.220;5.160;2023-04-16T07:07:27;13.43;;;6.40;;
68229;SDS011;55048;52.220;5.160;2023-04-16T07:09:52;14.60;;;6.70;;
68229;SDS011;55048;52.220;5.160;2023-04-16T07:12:18;16.00;;;6.05;;
68229;SDS011;55048;52.220;5.160;2023-04-16T07:14:45;12.43;;;5.45;;
68229;SDS011;55048;52.220;5.160;2023-04-16T07:17:10;18.00;;;7.53;;
68229;SDS011;55048;52.220;5.160;2023-04-16T07:19:36;15.85;;;6.95;;
68229;SDS011;55048;52.220;5.160;2023-04-16T07:22:01;19.85;;;6.55;;
68229;SDS011;55048;52.220;5.160;2023-04-16T07:24:27;15.60;;;6.28;;
68229;SDS011;55048;52.220;5.160;2023-04-16T07:26:52;11.13;;;6.65;;
68229;SDS011;55048;52.220;5.160;2023-04-16T07:29:17;15.60;;;6.10;;
68229;SDS011;55048;52.220;5.160;2023-04-16T07:31:46;12.07;;;6.38;;
68229;SDS011;55048;52.220;5.160;2023-04-16T07:34:11;14.80;;;6.82;;
68229;SDS011;55048;52.220;5.160;2023-04-16T07:36:37;12.82;;;5.18;;
68229;SDS011;55048;52.220;5.160;2023-04-16T07:39:05;11.40;;;5.53;;
68229;SDS011;55048;52.220;5.160;2023-04-16T07:41:31;17.38;;;5.43;;
68229;SDS011;55048;52.220;5.160;2023-04-16T07:43:56;12.02;;;6.20;;
68229;SDS011;55048;52.220;5.160;2023-04-16T07:46:22;10.65;;;5.10;;
68229;SDS011;55048;52.220;5.160;2023-04-16T07:48:47;9.38;;;4.10;;
68229;SDS011;55048;52.220;5.160;2023-04-16T07:51:14;13.18;;;4.72;;
68229;SDS011;55048;52.220;5.160;2023-04-16T07:53:39;12.20;;;5.47;;
68229;SDS011;55048;52.220;5.160;2023-04-16T07:56:06;12.93;;;5.47;;
68229;SDS011;55048;52.220;5.160;2023-04-16T07:58:31;8.82;;;4.63;;
68229;SDS011;55048;52.220;5.160;2023-04-16T08:00:57;7.28;;;5.30;;
68229;SDS011;55048;52.220;5.160;2023-04-16T08:03:22;5.43;;;3.92;;
68229;SDS011;55048;52.220;5.160;2023-04-16T08:05:48;9.85;;;4.95;;
68229;SDS011;55048;52.220;5.160;2023-04-16T08:08:13;11.70;;;4.53;;
68229;SDS011;55048;52.220;5.160;2023-04-16T08:10:38;18.60;;;4.90;;
68229;SDS011;55048;52.220;5.160;2023-04-16T08:13:04;13.70;;;4.65;;
68229;SDS011;55048;52.220;5.160;2023-04-16T08:15:29;13.43;;;4.32;;
68229;SDS011;55048;52.220;5.160;2023-04-16T08:17:55;11.52;;;4.53;;
68229;SDS011;55048;52.220;5.160;2023-04-16T08:20:20;14.30;;;4.82;;
68229;SDS011;55048;52.220;5.160;2023-04-16T08:22:46;14.18;;;4.05;;
68229;SDS011;55048;52.220;5.160;2023-04-16T08:25:12;9.07;;;4.28;;
68229;SDS011;55048;52.220;5.160;2023-04-16T08:27:38;8.63;;;3.85;;
68229;SDS011;55048;52.220;5.160;2023-04-16T08:30:04;9.75;;;4.30;;
68229;SDS011;55048;52.220;5.160;2023-04-16T08:32:30;11.27;;;4.15;;
68229;SDS011;55048;52.220;5.160;2023-04-16T08:34:56;8.95;;;3.97;;
68229;SDS011;55048;52.220;5.160;2023-04-16T08:37:21;6.68;;;2.95;;
68229;SDS011;55048;52.220;5.160;2023-04-16T08:39:47;8.13;;;3.10;;
68229;SDS011;55048;52.220;5.160;2023-04-16T08:42:31;6.30;;;3.50;;
68229;SDS011;55048;52.220;5.160;2023-04-16T08:45:07;10.90;;;3.50;;
68229;SDS011;55048;52.220;5.160;2023-04-16T08:47:34;10.60;;;3.60;;
68229;SDS011;55048;52.220;5.160;2023-04-16T08:50:03;8.77;;;3.75;;
68229;SDS011;55048;52.220;5.160;2023-04-16T08:52:30;10.27;;;3.55;;
68229;SDS011;55048;52.220;5.160;2023-04-16T08:55:03;9.15;;;3.47;;
68229;SDS011;55048;52.220;5.160;2023-04-16T08:57:57;10.05;;;3.30;;
68229;SDS011;55048;52.220;5.160;2023-04-16T09:00:23;6.05;;;2.72;;
68229;SDS011;55048;52.220;5.160;2023-04-16T09:02:49;6.90;;;2.97;;
68229;SDS011;55048;52.220;5.160;2023-04-16T09:05:15;8.38;;;3.28;;
68229;SDS011;55048;52.220;5.160;2023-04-16T09:07:45;7.10;;;2.95;;
68229;SDS011;55048;52.220;5.160;2023-04-16T09:10:11;7.18;;;2.55;;
68229;SDS011;55048;52.220;5.160;2023-04-16T09:12:39;3.63;;;2.28;;
68229;SDS011;55048;52.220;5.160;2023-04-16T09:15:06;4.13;;;1.67;;
68229;SDS011;55048;52.220;5.160;2023-04-16T09:17:36;5.88;;;2.63;;
68229;SDS011;55048;52.220;5.160;2023-04-16T09:20:03;3.00;;;2.13;;
68229;SDS011;55048;52.220;5.160;2023-04-16T09:24:58;5.95;;;2.75;;
68229;SDS011;55048;52.220;5.160;2023-04-16T09:27:23;6.35;;;2.30;;
68229;SDS011;55048;52.220;5.160;2023-04-16T09:29:49;4.20;;;2.20;;
68229;SDS011;55048;52.220;5.160;2023-04-16T09:32:15;6.93;;;2.15;;
68229;SDS011;55048;52.220;5.160;2023-04-16T09:34:56;7.10;;;2.78;;
68229;SDS011;55048;52.220;5.160;2023-04-16T09:37:29;5.40;;;1.50;;
68229;SDS011;55048;52.220;5.160;2023-04-16T09:39:59;4.45;;;2.20;;
68229;SDS011;55048;52.220;5.160;2023-04-16T09:42:33;6.40;;;1.92;;
68229;SDS011;55048;52.220;5.160;2023-04-16T09:45:01;4.93;;;1.88;;
68229;SDS011;55048;52.220;5.160;2023-04-16T09:47:40;5.50;;;1.92;;
68229;SDS011;55048;52.220;5.160;2023-04-16T09:50:07;6.97;;;2.30;;
68229;SDS011;55048;52.220;5.160;2023-04-16T09:52:36;4.03;;;2.03;;
68229;SDS011;55048;52.220;5.160;2023-04-16T09:55:05;5.63;;;2.58;;
68229;SDS011;55048;52.220;5.160;2023-04-16T09:57:30;5.47;;;2.03;;
68229;SDS011;55048;52.220;5.160;2023-04-16T10:00:06;5.22;;;2.33;;
68229;SDS011;55048;52.220;5.160;2023-04-16T10:02:33;8.73;;;2.65;;
68229;SDS011;55048;52.220;5.160;2023-04-16T10:05:00;5.32;;;2.13;;
68229;SDS011;55048;52.220;5.160;2023-04-16T10:07:33;8.00;;;2.60;;
68229;SDS011;55048;52.220;5.160;2023-04-16T10:09:59;5.57;;;2.25;;
68229;SDS011;55048;52.220;5.160;2023-04-16T10:12:25;7.78;;;3.05;;
68229;SDS011;55048;52.220;5.160;2023-04-16T10:14:52;11.43;;;2.88;;
68229;SDS011;55048;52.220;5.160;2023-04-16T10:17:18;8.77;;;2.67;;
68229;SDS011;55048;52.220;5.160;2023-04-16T10:19:44;10.38;;;2.50;;
68229;SDS011;55048;52.220;5.160;2023-04-16T10:22:10;8.82;;;2.70;;
68229;SDS011;55048;52.220;5.160;2023-04-16T10:24:36;6.80;;;1.95;;
68229;SDS011;55048;52.220;5.160;2023-04-16T10:27:01;3.03;;;2.17;;
68229;SDS011;55048;52.220;5.160;2023-04-16T10:29:28;6.35;;;3.20;;
68229;SDS011;55048;52.220;5.160;2023-04-16T10:31:55;8.40;;;2.50;;
68229;SDS011;55048;52.220;5.160;2023-04-16T10:34:22;7.40;;;2.58;;
68229;SDS011;55048;52.220;5.160;2023-04-16T10:36:52;8.93;;;2.97;;
68229;SDS011;55048;52.220;5.160;2023-04-16T10:39:19;6.93;;;2.78;;
68229;SDS011;55048;52.220;5.160;2023-04-16T10:41:46;10.40;;;4.05;;
68229;SDS011;55048;52.220;5.160;2023-04-16T10:44:12;19.45;;;4.03;;
68229;SDS011;55048;52.220;5.160;2023-04-16T10:46:42;14.27;;;4.45;;
68229;SDS011;55048;52.220;5.160;2023-04-16T10:51:38;17.55;;;4.60;;
68229;SDS011;55048;52.220;5.160;2023-04-16T10:54:18;11.70;;;3.80;;
68229;SDS011;55048;52.220;5.160;2023-04-16T10:56:44;15.43;;;4.95;;
68229;SDS011;55048;52.220;5.160;2023-04-16T10:59:10;17.05;;;5.63;;
68229;SDS011;55048;52.220;5.160;2023-04-16T11:01:37;21.77;;;5.22;;
68229;SDS011;55048;52.220;5.160;2023-04-16T11:07:00;15.23;;;5.03;;
68229;SDS011;55048;52.220;5.160;2023-04-16T11:12:24;18.05;;;5.53;;
68229;SDS011;55048;52.220;5.160;2023-04-16T11:14:57;19.25;;;6.30;;
68229;SDS011;55048;52.220;5.160;2023-04-16T11:17:26;22.25;;;6.22;;
68229;SDS011;55048;52.220;5.160;2023-04-16T11:19:53;23.55;;;5.25;;
68229;SDS011;55048;52.220;5.160;2023-04-16T11:22:19;21.05;;;5.63;;
68229;SDS011;55048;52.220;5.160;2023-04-16T11:24:45;12.52;;;5.45;;
68229;SDS011;55048;52.220;5.160;2023-04-16T11:27:14;20.70;;;6.05;;
68229;SDS011;55048;52.220;5.160;2023-04-16T11:29:40;13.38;;;5.10;;
68229;SDS011;55048;52.220;5.160;2023-04-16T11:32:06;16.80;;;5.75;;
68229;SDS011;55048;52.220;5.160;2023-04-16T11:34:31;18.10;;;6.55;;
68229;SDS011;55048;52.220;5.160;2023-04-16T11:36:57;16.17;;;5.40;;
68229;SDS011;55048;52.220;5.160;2023-04-16T11:39:23;23.75;;;6.60;;
68229;SDS011;55048;52.220;5.160;2023-04-16T11:41:49;18.20;;;6.72;;
68229;SDS011;55048;52.220;5.160;2023-04-16T11:44:23;12.35;;;4.82;;
68229;SDS011;55048;52.220;5.160;2023-04-16T11:46:50;16.48;;;5.75;;
68229;SDS011;55048;52.220;5.160;2023-04-16T11:49:25;17.45;;;6.78;;
68229;SDS011;55048;52.220;5.160;2023-04-16T11:51:52;10.45;;;4.53;;
68229;SDS011;55048;52.220;5.160;2023-04-16T11:54:21;21.15;;;6.45;;
68229;SDS011;55048;52.220;5.160;2023-04-16T11:56:48;17.17;;;6.10;;
68229;SDS011;55048;52.220;5.160;2023-04-16T12:01:47;21.27;;;6.50;;
68229;SDS011;55048;52.220;5.160;2023-04-16T12:04:14;17.35;;;6.47;;
68229;SDS011;55048;52.220;5.160;2023-04-16T12:09:30;14.40;;;5.78;;
68229;SDS011;55048;52.220;5.160;2023-04-16T12:11:56;20.52;;;6.53;;
68229;SDS011;55048;52.220;5.160;2023-04-16T12:14:22;18.25;;;6.40;;
68229;SDS011;55048;52.220;5.160;2023-04-16T12:16:47;22.00;;;5.70;;
68229;SDS011;55048;52.220;5.160;2023-04-16T12:19:13;16.08;;;6.18;;
68229;SDS011;55048;52.220;5.160;2023-04-16T12:21:39;15.25;;;6.38;;
68229;SDS011;55048;52.220;5.160;2023-04-16T12:24:07;19.63;;;6.35;;
68229;SDS011;55048;52.220;5.160;2023-04-16T12:26:40;18.20;;;5.93;;
68229;SDS011;55048;52.220;5.160;2023-04-16T12:29:13;16.05;;;5.15;;
68229;SDS011;55048;52.220;5.160;2023-04-16T12:31:38;19.77;;;6.25;;
68229;SDS011;55048;52.220;5.160;2023-04-16T12:34:04;16.83;;;5.68;;
68229;SDS011;55048;52.220;5.160;2023-04-16T12:36:29;11.60;;;5.35;;
68229;SDS011;55048;52.220;5.160;2023-04-16T12:38:55;11.90;;;5.03;;
68229;SDS011;55048;52.220;5.160;2023-04-16T12:41:21;18.27;;;6.20;;
68229;SDS011;55048;52.220;5.160;2023-04-16T12:43:47;16.92;;;5.90;;
68229;SDS011;55048;52.220;5.160;2023-04-16T12:46:13;11.55;;;5.30;;
68229;SDS011;55048;52.220;5.160;2023-04-16T12:48:38;15.40;;;5.57;;
68229;SDS011;55048;52.220;5.160;2023-04-16T12:51:03;16.60;;;6.05;;
68229;SDS011;55048;52.220;5.160;2023-04-16T12:53:29;13.80;;;6.00;;
68229;SDS011;55048;52.220;5.160;2023-04-16T12:55:54;13.18;;;5.45;;
68229;SDS011;55048;52.220;5.160;2023-04-16T12:58:20;14.30;;;6.20;;
68229;SDS011;55048;52.220;5.160;2023-04-16T13:00:48;14.43;;;5.57;;
68229;SDS011;55048;52.220;5.160;2023-04-16T13:03:13;21.63;;;6.40;;
68229;SDS011;55048;52.220;5.160;2023-04-16T13:05:40;10.57;;;4.95;;
68229;SDS011;55048;52.220;5.160;2023-04-16T13:08:05;11.27;;;5.50;;
68229;SDS011;55048;52.220;5.160;2023-04-16T13:10:30;14.90;;;5.80;;
68229;SDS011;55048;52.220;5.160;2023-04-16T13:12:56;16.15;;;6.60;;
68229;SDS011;55048;52.220;5.160;2023-04-16T13:15:21;13.50;;;7.05;;
68229;SDS011;55048;52.220;5.160;2023-04-16T13:17:47;18.10;;;7.43;;
68229;SDS011;55048;52.220;5.160;2023-04-16T13:20:12;18.52;;;7.38;;
68229;SDS011;55048;52.220;5.160;2023-04-16T13:22:37;14.75;;;7.13;;
68229;SDS011;55048;52.220;5.160;2023-04-16T13:25:03;19.98;;;7.20;;
68229;SDS011;55048;52.220;5.160;2023-04-16T13:27:29;22.05;;;8.02;;
68229;SDS011;55048;52.220;5.160;2023-04-16T13:29:56;24.85;;;8.32;;
68229;SDS011;55048;52.220;5.160;2023-04-16T13:32:21;16.08;;;7.18;;
68229;SDS011;55048;52.220;5.160;2023-04-16T13:34:47;27.33;;;6.97;;
68229;SDS011;55048;52.220;5.160;2023-04-16T13:37:12;17.92;;;7.28;;
68229;SDS011;55048;52.220;5.160;2023-04-16T13:39:38;20.55;;;7.40;;
68229;SDS011;55048;52.220;5.160;2023-04-16T13:42:03;13.75;;;6.15;;
68229;SDS011;55048;52.220;5.160;2023-04-16T13:44:28;17.45;;;7.78;;
68229;SDS011;55048;52.220;5.160;2023-04-16T13:46:54;14.73;;;7.10;;
68229;SDS011;55048;52.220;5.160;2023-04-16T13:49:20;20.40;;;7.68;;
68229;SDS011;55048;52.220;5.160;2023-04-16T13:51:46;16.63;;;7.88;;
68229;SDS011;55048;52.220;5.160;2023-04-16T13:54:12;20.67;;;7.05;;
68229;SDS011;55048;52.220;5.160;2023-04-16T13:56:37;18.75;;;7.35;;
68229;SDS011;55048;52.220;5.160;2023-04-16T13:59:03;18.13;;;7.47;;
68229;SDS011;55048;52.220;5.160;2023-04-16T14:01:29;17.02;;;7.55;;
68229;SDS011;55048;52.220;5.160;2023-04-16T14:03:54;15.00;;;6.95;;
68229;SDS011;55048;52.220;5.160;2023-04-16T14:06:20;15.00;;;6.55;;
68229;SDS011;55048;52.220;5.160;2023-04-16T14:08:45;20.45;;;7.40;;
68229;SDS011;55048;52.220;5.160;2023-04-16T14:11:11;14.85;;;7.10;;
68229;SDS011;55048;52.220;5.160;2023-04-16T14:13:36;19.40;;;7.55;;
68229;SDS011;55048;52.220;5.160;2023-04-16T14:16:02;22.17;;;6.75;;
68229;SDS011;55048;52.220;5.160;2023-04-16T14:18:27;22.55;;;7.53;;
68229;SDS011;55048;52.220;5.160;2023-04-16T14:20:53;17.40;;;7.03;;
68229;SDS011;55048;52.220;5.160;2023-04-16T14:23:18;18.35;;;7.13;;
68229;SDS011;55048;52.220;5.160;2023-04-16T14:25:44;20.88;;;7.30;;
68229;SDS011;55048;52.220;5.160;2023-04-16T14:28:09;19.50;;;8.88;;
68229;SDS011;55048;52.220;5.160;2023-04-16T14:30:35;20.55;;;7.80;;
68229;SDS011;55048;52.220;5.160;2023-04-16T14:33:00;21.45;;;7.85;;
68229;SDS011;55048;52.220;5.160;2023-04-16T14:35:26;15.45;;;6.57;;
68229;SDS011;55048;52.220;5.160;2023-04-16T14:37:52;17.58;;;6.10;;
68229;SDS011;55048;52.220;5.160;2023-04-16T14:40:17;19.20;;;7.88;;
68229;SDS011;55048;52.220;5.160;2023-04-16T14:42:43;19.25;;;7.88;;
68229;SDS011;55048;52.220;5.160;2023-04-16T14:45:08;17.35;;;6.43;;
68229;SDS011;55048;52.220;5.160;2023-04-16T14:47:34;20.67;;;6.68;;
68229;SDS011;55048;52.220;5.160;2023-04-16T14:50:01;14.57;;;5.95;;
68229;SDS011;55048;52.220;5.160;2023-04-16T14:52:27;21.48;;;7.10;;